This is the latest recevied weather packets stored in our database for station/object F5SHG-3. If no packets are shown the sender has not sent any weather packets the latest 10 day(s).
| Time | Temp. | Humidity | Pressure | Rain* | Wind** | Luminosity | Snow |
|---|---|---|---|---|---|---|---|
| 1777025715 | 25.56° C | 21% | 1019 hPa | - | - | - | - |
| 1777024823 | 25° C | 24% | 1018.9 hPa | - | - | - | - |
| 1777024814 | 25° C | 24% | 1018.9 hPa | - | - | - | - |
| 1777023921 | 23.89° C | 23% | 1018.9 hPa | - | - | - | - |
| 1777023918 | 23.89° C | 23% | 1018.9 hPa | - | - | - | - |
| 1777023026 | 23.89° C | 23% | 1018.9 hPa | - | - | - | - |
| 1777023018 | 23.89° C | 23% | 1018.9 hPa | - | - | - | - |
| 1777022118 | 22.22° C | 26% | 1019 hPa | - | - | - | - |
| 1777021225 | 21.67° C | 29% | 1019.1 hPa | - | - | - | - |
| 1777021217 | 21.67° C | 29% | 1019.1 hPa | - | - | - | - |
| 1777020329 | 21.11° C | 28% | 1019 hPa | - | - | - | - |
| 1777020317 | 21.11° C | 28% | 1019 hPa | - | - | - | - |
| 1777019417 | 20.56° C | 30% | 1019 hPa | - | - | - | - |
| 1777018526 | 19.44° C | 31% | 1019 hPa | - | - | - | - |
| 1777018516 | 19.44° C | 31% | 1019 hPa | - | - | - | - |
| 1777017616 | 18.33° C | 34% | 1018.8 hPa | - | - | - | - |
| 1777016721 | 17.22° C | 38% | 1018.9 hPa | - | - | - | - |
| 1777016716 | 17.22° C | 38% | 1018.9 hPa | - | - | - | - |
| 1777015816 | 16.11° C | 44% | 1018.8 hPa | - | - | - | - |
| 1777014921 | 15° C | 47% | 1018.8 hPa | - | - | - | - |
| 1777014916 | 15° C | 47% | 1018.8 hPa | - | - | - | - |
| 1777014029 | 14.44° C | 49% | 1018.7 hPa | - | - | - | - |
| 1777014016 | 14.44° C | 49% | 1018.7 hPa | - | - | - | - |
| 1777013121 | 13.33° C | 51% | 1018.9 hPa | - | - | - | - |
| 1777013116 | 13.33° C | 51% | 1018.9 hPa | - | - | - | - |
* Rain since midnight (hover to see other rain measurements)
** Current wind speed in m/s (hover to see current wind gust speed)